Time;durP1;ratioP1;P1;durP2;ratioP2;P2;SDS_P1;SDS_P2;PMS_P1;PMS_P2;Temp;Humidity;BMP_temperature;BMP_pressure;BME280_temperature;BME280_humidity;BME280_pressure;Samples;Min_cycle;Max_cycle;Signal;HPM_P1;HPM_P2
2021/03/07 00:00:48;;;;;;;11.77;6.72;;;;;;;0.40;55.00;96574.81;4824275;29;20097;-44
2021/03/07 00:03:15;;;;;;;11.52;6.13;;;;;;;0.49;54.79;96577.84;4824225;29;20073;-47
2021/03/07 00:05:42;;;;;;;10.27;7.05;;;;;;;0.05;56.35;96580.56;4824334;29;20059;-45
2021/03/07 00:08:08;;;;;;;12.35;6.28;;;;;;;-0.20;58.50;96575.75;4824313;29;20084;-43
2021/03/07 00:10:34;;;;;;;10.23;6.13;;;;;;;0.32;56.25;96569.13;4824503;29;20125;-45
2021/03/07 00:13:01;;;;;;;17.83;7.50;;;;;;;0.25;55.86;96560.56;4824299;29;20054;-44
2021/03/07 00:15:27;;;;;;;15.35;7.47;;;;;;;-0.29;57.91;96554.13;4824405;29;20078;-44
2021/03/07 00:17:54;;;;;;;12.40;7.30;;;;;;;-0.28;58.33;96563.69;4824583;29;20062;-46
2021/03/07 00:20:22;;;;;;;10.73;6.63;;;;;;;0.18;57.48;96564.22;4823543;29;20059;-44
2021/03/07 00:22:50;;;;;;;10.90;6.72;;;;;;;0.37;55.13;96571.88;4823725;29;20141;-44
2021/03/07 00:25:18;;;;;;;10.57;5.95;;;;;;;0.33;55.88;96566.25;4836874;29;20057;-45
2021/03/07 00:27:46;;;;;;;9.35;6.05;;;;;;;0.59;54.01;96555.84;4842421;29;20054;-44
2021/03/07 00:30:15;;;;;;;11.38;6.75;;;;;;;0.18;55.94;96569.53;4842583;29;20133;-49
2021/03/07 00:32:43;;;;;;;10.70;6.50;;;;;;;-0.05;57.47;96565.31;4825318;29;20090;-45
2021/03/07 00:35:11;;;;;;;15.65;7.28;;;;;;;-0.41;58.78;96564.06;4823409;29;20054;-45
2021/03/07 00:37:40;;;;;;;11.40;6.57;;;;;;;0.16;56.43;96565.50;4824190;29;20394;-45
2021/03/07 00:40:08;;;;;;;12.02;7.30;;;;;;;-0.79;59.31;96567.53;4824069;29;20141;-49
2021/03/07 00:42:36;;;;;;;11.98;7.47;;;;;;;-0.54;59.52;96569.75;4833273;29;20469;-44
2021/03/07 00:45:07;;;;;;;9.80;6.00;;;;;;;-0.67;58.84;96564.78;4831938;29;20142;-46
2021/03/07 00:47:33;;;;;;;12.15;6.57;;;;;;;-1.04;59.67;96560.81;4839173;29;20049;-46
2021/03/07 00:50:00;;;;;;;11.80;6.22;;;;;;;-1.12;59.24;96560.41;4841828;29;20069;-46
2021/03/07 00:52:27;;;;;;;10.40;6.70;;;;;;;-0.95;59.21;96556.69;4840641;29;20145;-45
2021/03/07 00:54:53;;;;;;;14.48;7.03;;;;;;;-0.94;59.42;96552.19;4841083;29;20396;-45
2021/03/07 00:57:19;;;;;;;11.00;6.68;;;;;;;-1.24;60.12;96558.63;4840413;29;20054;-44
2021/03/07 00:59:46;;;;;;;10.82;6.72;;;;;;;-1.38;60.09;96561.84;4837786;29;20128;-45
2021/03/07 01:02:12;;;;;;;12.63;7.20;;;;;;;-1.47;60.63;96561.44;4823361;29;20077;-43
2021/03/07 01:04:38;;;;;;;10.07;6.15;;;;;;;-1.56;60.92;96555.75;4823155;29;20526;-43
2021/03/07 01:07:05;;;;;;;10.88;6.35;;;;;;;-1.61;61.44;96546.88;4841382;29;20515;-45
2021/03/07 01:09:31;;;;;;;9.98;6.15;;;;;;;-1.65;61.92;96547.34;4837767;29;20496;-48
2021/03/07 01:12:05;;;;;;;9.75;6.07;;;;;;;-0.93;58.39;96545.03;4823375;29;20554;-47
2021/03/07 01:14:31;;;;;;;9.98;5.75;;;;;;;-1.49;60.98;96531.69;4822977;29;20137;-45
2021/03/07 01:16:58;;;;;;;10.18;6.05;;;;;;;-0.95;59.40;96534.63;4826704;29;20461;-44
2021/03/07 01:19:28;;;;;;;10.65;6.53;;;;;;;-1.25;60.03;96532.34;4840670;29;20056;-43
2021/03/07 01:21:54;;;;;;;11.65;6.20;;;;;;;-0.88;58.19;96526.50;4841332;29;20136;-44
2021/03/07 01:24:21;;;;;;;10.65;6.40;;;;;;;-1.01;59.85;96522.31;4828351;29;20059;-44
2021/03/07 01:26:47;;;;;;;13.18;6.82;;;;;;;-0.89;59.51;96525.69;4823087;29;20050;-44
2021/03/07 01:29:14;;;;;;;11.85;7.18;;;;;;;-0.93;58.95;96524.56;4824338;29;20085;-43
2021/03/07 01:31:40;;;;;;;10.82;6.60;;;;;;;-0.58;58.91;96516.28;4839566;29;20082;-44
2021/03/07 01:34:07;;;;;;;9.82;6.47;;;;;;;-0.49;58.60;96516.63;4823633;29;20058;-44
2021/03/07 01:36:34;;;;;;;9.93;6.30;;;;;;;-0.54;58.17;96512.06;4824529;29;20090;-44
2021/03/07 01:39:00;;;;;;;10.55;6.53;;;;;;;-0.45;58.08;96501.81;4822874;29;20078;-48
2021/03/07 01:41:26;;;;;;;13.25;6.47;;;;;;;-0.51;57.95;96502.81;4827386;29;20129;-45
2021/03/07 01:43:53;;;;;;;11.48;6.97;;;;;;;-0.36;57.65;96500.31;4822367;29;20096;-44
2021/03/07 01:46:20;;;;;;;12.70;6.82;;;;;;;-0.31;57.41;96499.59;4839934;29;20122;-45
2021/03/07 01:48:49;;;;;;;10.18;6.15;;;;;;;-0.86;59.88;96495.19;4841055;29;20154;-44
2021/03/07 01:51:16;;;;;;;11.35;6.43;;;;;;;-1.04;60.55;96491.78;4839452;29;20098;-47
2021/03/07 01:53:42;;;;;;;10.75;6.95;;;;;;;-0.86;60.66;96493.31;4826771;29;20103;-44
2021/03/07 01:56:10;;;;;;;11.57;6.85;;;;;;;-0.97;59.69;96497.69;4836408;29;20133;-44
2021/03/07 01:58:38;;;;;;;10.35;6.53;;;;;;;-1.14;60.74;96477.53;4840743;29;20069;-47
2021/03/07 02:01:06;;;;;;;11.88;6.82;;;;;;;-0.87;60.65;96481.09;4835249;29;20058;-46
2021/03/07 02:03:33;;;;;;;10.90;6.57;;;;;;;-0.18;57.38;96485.09;4822357;29;20142;-45
2021/03/07 02:06:00;;;;;;;11.23;6.80;;;;;;;-0.52;59.14;96485.22;4835023;29;20064;-44
2021/03/07 02:08:27;;;;;;;11.13;7.10;;;;;;;-0.43;59.23;96485.59;4840522;29;20126;-44
2021/03/07 02:10:57;;;;;;;10.85;6.88;;;;;;;-0.31;58.28;96475.66;4838904;29;20058;-44
2021/03/07 02:13:36;;;;;;;13.32;7.18;;;;;;;-0.21;57.02;96481.06;4839800;29;20186;-44
2021/03/07 02:16:04;;;;;;;10.13;6.47;;;;;;;-0.45;58.71;96480.56;4839772;29;20049;-48
2021/03/07 02:18:36;;;;;;;11.13;6.38;;;;;;;-0.22;57.16;96471.50;4839141;29;20056;-46
2021/03/07 02:21:15;;;;;;;11.60;7.05;;;;;;;-0.81;60.65;96474.81;4839660;29;20508;-44
2021/03/07 02:24:05;;;;;;;12.88;7.55;;;;;;;-0.76;59.13;96474.84;4829246;29;20182;-46
2021/03/07 02:26:33;;;;;;;12.07;6.88;;;;;;;-0.88;59.26;96471.50;4822316;29;20058;-44
2021/03/07 02:29:00;;;;;;;11.73;7.00;;;;;;;-1.18;61.36;96472.69;4820991;29;20054;-44
2021/03/07 02:31:28;;;;;;;12.80;7.28;;;;;;;-1.08;61.92;96479.22;4831382;29;20054;-44
2021/03/07 02:34:10;;;;;;;10.80;6.93;;;;;;;-0.58;58.71;96480.94;4822225;29;20074;-47
2021/03/07 02:36:43;;;;;;;12.85;7.38;;;;;;;-1.09;61.08;96480.25;4822559;29;20143;-45
2021/03/07 02:39:11;;;;;;;12.27;7.47;;;;;;;-1.00;61.51;96471.63;4822876;29;20081;-44
2021/03/07 02:41:39;;;;;;;11.15;6.72;;;;;;;-0.82;60.83;96475.84;4839062;29;20449;-45
2021/03/07 02:44:11;;;;;;;12.43;6.70;;;;;;;-0.36;58.58;96471.06;4838434;29;20133;-44
2021/03/07 02:46:38;;;;;;;10.73;7.53;;;;;;;-0.94;61.04;96467.19;4843664;29;20092;-45
2021/03/07 02:49:11;;;;;;;11.40;7.03;;;;;;;-1.15;62.09;96460.78;4843900;29;20301;-50
2021/03/07 02:51:38;;;;;;;12.85;7.72;;;;;;;-0.88;61.27;96465.38;4843622;29;20081;-48
2021/03/07 02:54:08;;;;;;;14.35;7.35;;;;;;;-0.79;61.09;96459.41;4838757;29;20059;-45
2021/03/07 02:56:36;;;;;;;13.43;7.10;;;;;;;-0.99;61.77;96456.50;4835565;29;20137;-44
2021/03/07 02:59:12;;;;;;;13.15;8.18;;;;;;;-1.06;61.95;96450.56;4842586;29;20145;-44
2021/03/07 03:01:41;;;;;;;10.85;6.82;;;;;;;-1.32;63.00;96452.06;4842584;29;20488;-45
2021/03/07 03:04:09;;;;;;;12.80;7.20;;;;;;;-1.47;63.91;96447.31;4843585;29;20058;-47
2021/03/07 03:06:37;;;;;;;13.77;7.25;;;;;;;-1.51;63.74;96446.22;4842594;29;20133;-45
2021/03/07 03:09:06;;;;;;;11.88;6.88;;;;;;;-1.55;64.54;96437.13;4843016;29;20145;-46
2021/03/07 03:11:36;;;;;;;15.30;7.38;;;;;;;-1.41;63.96;96435.75;4843035;29;20056;-47
2021/03/07 03:14:05;;;;;;;10.80;7.07;;;;;;;-1.11;62.69;96434.56;4841904;29;20126;-45
2021/03/07 03:16:33;;;;;;;11.13;7.00;;;;;;;-0.84;60.84;96435.44;4825781;29;20065;-48
2021/03/07 03:19:05;;;;;;;14.30;8.00;;;;;;;-0.77;61.98;96430.75;4843698;29;20050;-47
2021/03/07 03:21:32;;;;;;;10.68;7.03;;;;;;;-0.86;61.79;96413.63;4842740;29;20509;-48
2021/03/07 03:23:59;;;;;;;12.07;7.70;;;;;;;-0.64;61.13;96431.44;4839875;29;20058;-48
2021/03/07 03:26:26;;;;;;;11.40;7.18;;;;;;;-0.72;62.20;96420.16;4825151;29;20559;-44
2021/03/07 03:28:54;;;;;;;17.83;7.63;;;;;;;-0.94;62.56;96430.00;4842018;29;20057;-44
2021/03/07 03:31:21;;;;;;;12.63;7.18;;;;;;;-1.03;62.00;96418.22;4842868;29;20513;-45
2021/03/07 03:33:48;;;;;;;10.23;7.50;;;;;;;-0.98;62.44;96420.91;4837290;29;20050;-44
2021/03/07 03:36:15;;;;;;;14.07;8.38;;;;;;;-0.98;62.38;96423.56;4825120;29;20081;-46
2021/03/07 03:38:52;;;;;;;12.48;7.40;;;;;;;-1.05;62.69;96420.28;4840831;29;20085;-45
2021/03/07 03:41:21;;;;;;;12.40;7.68;;;;;;;-1.19;63.49;96422.50;4843193;29;20094;-44
2021/03/07 03:43:56;;;;;;;13.05;8.25;;;;;;;-1.27;63.59;96417.59;4824963;29;20085;-48
2021/03/07 03:46:26;;;;;;;12.32;7.80;;;;;;;-1.14;62.61;96414.59;4824515;29;20154;-46
2021/03/07 03:48:58;;;;;;;12.07;7.70;;;;;;;-1.29;63.37;96411.75;4842226;29;20488;-47
2021/03/07 03:51:26;;;;;;;13.68;8.07;;;;;;;-1.25;63.49;96410.22;4843143;29;20141;-45
2021/03/07 03:53:55;;;;;;;12.68;7.22;;;;;;;-1.09;63.06;96409.38;4841451;29;20054;-43
2021/03/07 03:56:24;;;;;;;11.20;7.75;;;;;;;-0.89;61.77;96408.81;4841539;29;20062;-47
2021/03/07 03:58:53;;;;;;;12.73;7.78;;;;;;;-1.54;64.31;96407.69;4842175;29;20046;-45
2021/03/07 04:01:20;;;;;;;13.70;8.00;;;;;;;-1.45;63.66;96410.75;4842657;29;20137;-45
2021/03/07 04:03:49;;;;;;;12.52;7.30;;;;;;;-1.33;63.39;96413.28;4824324;29;20064;-45
2021/03/07 04:06:21;;;;;;;11.52;8.00;;;;;;;-1.07;62.91;96406.44;4824651;29;20054;-45
2021/03/07 04:08:49;;;;;;;11.25;7.05;;;;;;;-0.88;62.68;96413.06;4839708;29;20054;-49
2021/03/07 04:11:16;;;;;;;12.02;7.75;;;;;;;-0.80;61.91;96415.31;4831314;29;20137;-45
2021/03/07 04:13:43;;;;;;;11.35;7.65;;;;;;;-0.87;62.34;96409.38;4837544;29;20439;-46
2021/03/07 04:16:10;;;;;;;13.18;7.82;;;;;;;-0.92;62.77;96416.47;4837139;29;20077;-47
2021/03/07 04:18:37;;;;;;;11.40;8.05;;;;;;;-1.04;62.72;96408.63;4838369;29;20065;-46
2021/03/07 04:21:04;;;;;;;11.55;7.32;;;;;;;-1.13;62.94;96420.72;4842730;29;20139;-44
2021/03/07 04:23:30;;;;;;;11.70;7.35;;;;;;;-1.27;63.97;96410.47;4833959;29;20047;-45
2021/03/07 04:25:57;;;;;;;10.05;7.13;;;;;;;-1.30;63.55;96418.94;4823913;29;20047;-44
2021/03/07 04:28:24;;;;;;;13.45;7.95;;;;;;;-1.16;63.16;96411.41;4835844;29;20516;-46
2021/03/07 04:30:52;;;;;;;10.90;7.70;;;;;;;-1.10;61.76;96412.28;4842141;29;20134;-46
2021/03/07 04:33:19;;;;;;;13.13;8.98;;;;;;;-1.13;61.97;96413.56;4835405;29;20050;-44
2021/03/07 04:35:46;;;;;;;15.55;8.70;;;;;;;-1.23;62.23;96413.44;4842288;29;20060;-44
2021/03/07 04:38:13;;;;;;;13.00;7.40;;;;;;;-1.76;65.36;96410.28;4841417;29;20110;-45
2021/03/07 04:40:40;;;;;;;18.88;8.80;;;;;;;-1.59;65.40;96404.97;4837763;29;20054;-45
2021/03/07 04:43:08;;;;;;;13.10;7.72;;;;;;;-1.44;64.70;96405.16;4831815;29;20141;-44
2021/03/07 04:45:34;;;;;;;17.13;9.25;;;;;;;-1.38;64.89;96402.59;4831188;29;20053;-45
2021/03/07 04:48:03;;;;;;;14.30;8.15;;;;;;;-1.12;63.81;96403.75;4842177;29;20136;-45
2021/03/07 04:50:29;;;;;;;14.45;7.72;;;;;;;-0.73;61.48;96399.16;4841814;29;20061;-45
2021/03/07 04:52:56;;;;;;;11.68;7.72;;;;;;;-1.18;62.08;96398.34;4842041;29;20053;-44
2021/03/07 04:55:22;;;;;;;16.67;8.77;;;;;;;-1.88;64.34;96401.63;4839206;29;20045;-45
2021/03/07 04:57:48;;;;;;;10.48;7.35;;;;;;;-2.01;65.06;96401.94;4841579;29;20058;-44
2021/03/07 05:00:17;;;;;;;13.18;7.57;;;;;;;-1.87;66.02;96397.91;4841433;29;20096;-44
2021/03/07 05:02:43;;;;;;;16.02;8.40;;;;;;;-1.33;63.68;96395.53;4839913;29;20133;-45
2021/03/07 05:05:11;;;;;;;13.63;7.78;;;;;;;-1.28;63.24;96389.47;4840453;29;20523;-45
2021/03/07 05:07:37;;;;;;;19.88;7.93;;;;;;;-1.46;65.30;96383.41;4841174;29;20156;-45
2021/03/07 05:10:06;;;;;;;12.98;8.23;;;;;;;-1.63;66.20;96379.16;4841466;29;20082;-45
2021/03/07 05:12:33;;;;;;;14.13;8.32;;;;;;;-1.62;66.04;96376.28;4839362;29;20102;-43
2021/03/07 05:15:07;;;;;;;16.60;9.32;;;;;;;-1.18;63.28;96379.78;4831940;29;20133;-43
2021/03/07 05:17:34;;;;;;;12.35;7.90;;;;;;;-1.27;63.45;96373.31;4833060;29;20065;-43
2021/03/07 05:20:02;;;;;;;14.93;7.78;;;;;;;-1.36;63.53;96379.28;4841548;29;20457;-44
2021/03/07 05:22:29;;;;;;;14.43;8.82;;;;;;;-1.49;64.02;96375.13;4840795;29;20050;-45
2021/03/07 05:24:55;;;;;;;11.73;7.32;;;;;;;-1.72;64.50;96371.63;4831579;29;20470;-44
2021/03/07 05:27:22;;;;;;;16.70;8.35;;;;;;;-1.92;65.39;96358.88;4832313;29;20114;-44
2021/03/07 05:29:48;;;;;;;15.93;8.70;;;;;;;-1.73;65.71;96377.16;4841401;29;20128;-45
2021/03/07 05:32:14;;;;;;;14.20;8.50;;;;;;;-1.80;65.65;96377.31;4835620;29;20474;-48
2021/03/07 05:34:41;;;;;;;15.18;8.68;;;;;;;-1.52;64.65;96375.63;4822650;29;20050;-43
2021/03/07 05:37:07;;;;;;;13.50;8.73;;;;;;;-1.69;64.71;96373.78;4830299;29;20133;-44
2021/03/07 05:39:34;;;;;;;14.27;8.80;;;;;;;-1.91;65.33;96381.69;4840101;29;20111;-45
2021/03/07 05:42:02;;;;;;;14.93;9.20;;;;;;;-1.98;65.88;96380.22;4833666;29;20058;-44
2021/03/07 05:44:28;;;;;;;13.50;8.50;;;;;;;-1.82;65.35;96376.78;4824741;29;20068;-44
2021/03/07 05:47:04;;;;;;;15.35;8.50;;;;;;;-1.95;65.79;96382.38;4840964;29;20134;-44
2021/03/07 05:49:33;;;;;;;14.18;8.50;;;;;;;-2.15;66.50;96377.56;4839980;29;20069;-48
2021/03/07 05:52:00;;;;;;;15.98;8.50;;;;;;;-2.32;67.05;96384.72;4836537;29;20470;-48
2021/03/07 05:54:43;;;;;;;15.00;9.18;;;;;;;-2.20;67.00;96375.66;4825804;29;20122;-45
2021/03/07 05:57:10;;;;;;;12.88;8.45;;;;;;;-2.24;66.90;96366.56;4840880;29;20054;-44
2021/03/07 05:59:46;;;;;;;15.32;9.10;;;;;;;-2.20;67.32;96367.69;4839847;29;20050;-47
2021/03/07 06:02:14;;;;;;;13.65;7.95;;;;;;;-1.54;65.06;96372.38;4834091;29;20070;-43
2021/03/07 06:04:59;;;;;;;14.95;8.40;;;;;;;-1.48;64.12;96371.41;4822165;29;20770;-44
2021/03/07 06:07:36;;;;;;;13.00;8.20;;;;;;;-1.91;65.89;96372.94;4833521;29;20049;-43
2021/03/07 06:10:20;;;;;;;17.27;9.50;;;;;;;-2.07;67.18;96363.94;4840421;29;20065;-43
2021/03/07 06:13:10;;;;;;;17.35;8.95;;;;;;;-2.03;66.84;96369.53;4835431;29;20062;-43
2021/03/07 06:16:09;;;;;;;16.88;9.30;;;;;;;-2.42;68.31;96369.44;4825160;29;20137;-46
2021/03/07 06:18:43;;;;;;;14.20;8.40;;;;;;;-2.15;67.32;96366.97;4839418;29;20104;-43
2021/03/07 06:21:34;;;;;;;14.88;8.90;;;;;;;-2.03;66.91;96367.69;4840228;29;20065;-46
2021/03/07 06:24:02;;;;;;;13.90;9.02;;;;;;;-1.88;66.47;96359.19;4832326;29;20130;-47
2021/03/07 06:26:29;;;;;;;14.18;8.98;;;;;;;-1.74;65.91;96360.44;4840524;29;20528;-46
2021/03/07 06:29:10;;;;;;;15.55;8.75;;;;;;;-1.61;65.74;96345.22;4840419;29;20058;-46
2021/03/07 06:31:42;;;;;;;15.20;9.32;;;;;;;-1.49;65.09;96349.38;4822400;29;20597;-45
2021/03/07 06:34:08;;;;;;;15.40;9.07;;;;;;;-1.29;64.31;96343.53;4822305;29;20133;-42
2021/03/07 06:36:37;;;;;;;14.70;8.85;;;;;;;-1.10;64.66;96335.28;4840387;29;20484;-45
2021/03/07 06:39:06;;;;;;;14.20;8.98;;;;;;;-0.83;63.03;96346.72;4840395;29;20054;-45
2021/03/07 06:41:34;;;;;;;14.55;9.00;;;;;;;-1.12;63.72;96337.34;4822506;29;20077;-45
2021/03/07 06:44:15;;;;;;;16.23;9.88;;;;;;;-1.24;64.87;96340.13;4835206;29;20058;-53
2021/03/07 06:46:44;;;;;;;15.63;9.13;;;;;;;-1.18;64.44;96334.63;4822204;29;20154;-44
2021/03/07 06:49:25;;;;;;;14.18;8.68;;;;;;;-1.19;65.24;96337.56;4837925;29;20084;-47
2021/03/07 06:52:00;;;;;;;15.73;8.48;;;;;;;-0.90;64.46;96340.81;4840176;29;20086;-44
2021/03/07 06:54:28;;;;;;;14.40;8.98;;;;;;;-0.62;63.98;96352.25;4834273;29;20058;-47
2021/03/07 06:56:54;;;;;;;15.32;8.88;;;;;;;-0.64;64.11;96354.38;4822590;29;20058;-45
2021/03/07 06:59:23;;;;;;;16.63;9.43;;;;;;;-0.41;63.33;96356.72;4838515;29;20057;-44
2021/03/07 07:01:52;;;;;;;14.98;9.15;;;;;;;-0.02;61.79;96351.19;4839675;29;20102;-45
2021/03/07 07:04:20;;;;;;;12.20;8.43;;;;;;;-0.09;61.96;96354.06;4825961;29;20114;-43
2021/03/07 07:07:16;;;;;;;13.40;9.48;;;;;;;-0.09;63.26;96346.09;4822096;29;20478;-44
2021/03/07 07:09:44;;;;;;;16.42;9.45;;;;;;;-0.61;65.18;96341.38;4822336;29;20119;-43
2021/03/07 07:12:24;;;;;;;15.95;10.45;;;;;;;-0.75;66.32;96333.00;4837892;29;20144;-46
2021/03/07 07:15:10;;;;;;;15.52;10.13;;;;;;;-0.57;66.29;96339.00;4836239;29;20131;-44
2021/03/07 07:17:37;;;;;;;17.17;10.15;;;;;;;-0.18;65.40;96344.94;4839851;29;20062;-45
2021/03/07 07:20:06;;;;;;;15.38;10.45;;;;;;;-0.08;64.94;96345.03;4838983;29;20054;-47
2021/03/07 07:22:32;;;;;;;15.07;9.82;;;;;;;-0.01;64.43;96337.63;4838891;29;20137;-48
2021/03/07 07:25:00;;;;;;;15.73;10.52;;;;;;;-0.10;65.09;96333.03;4838098;29;20141;-44
2021/03/07 07:27:27;;;;;;;16.38;10.30;;;;;;;-0.36;65.85;96337.34;4840071;29;20141;-44
2021/03/07 07:29:53;;;;;;;16.08;10.05;;;;;;;-0.08;65.10;96330.94;4839737;29;20065;-45
2021/03/07 07:32:29;;;;;;;16.55;11.15;;;;;;;-0.13;65.43;96328.22;4838705;29;20078;-44
2021/03/07 07:35:01;;;;;;;14.65;9.75;;;;;;;-0.22;65.66;96335.09;4837634;29;20389;-45
2021/03/07 07:37:35;;;;;;;16.38;10.48;;;;;;;-0.31;65.82;96335.53;4842940;29;20058;-47
2021/03/07 07:40:02;;;;;;;16.05;10.80;;;;;;;-0.43;66.73;96332.22;4842510;29;20110;-44
2021/03/07 07:42:32;;;;;;;15.73;10.13;;;;;;;-0.41;66.54;96322.16;4839322;29;20469;-45
2021/03/07 07:45:11;;;;;;;16.35;10.77;;;;;;;-0.34;67.21;96335.25;4838143;29;20055;-45
2021/03/07 07:47:49;;;;;;;15.83;10.80;;;;;;;-0.30;67.49;96334.47;4836407;29;20191;-44
2021/03/07 07:50:31;;;;;;;16.50;10.15;;;;;;;-0.02;66.79;96333.38;4842599;29;20544;-45
2021/03/07 07:53:06;;;;;;;15.07;10.15;;;;;;;0.07;66.13;96335.56;4833102;29;20512;-46
2021/03/07 07:55:45;;;;;;;17.75;10.23;;;;;;;0.30;64.94;96332.53;4840417;29;20054;-45
2021/03/07 07:58:36;;;;;;;14.82;10.02;;;;;;;0.33;64.95;96326.69;4841536;29;20480;-47
2021/03/07 08:01:14;;;;;;;17.52;10.43;;;;;;;-0.03;66.31;96328.31;4841461;29;20068;-44
2021/03/07 08:03:46;;;;;;;19.58;11.73;;;;;;;0.04;66.36;96328.91;4823872;29;20681;-46
2021/03/07 08:06:28;;;;;;;22.85;12.20;;;;;;;0.22;66.10;96322.34;4824859;29;20082;-44
2021/03/07 08:08:54;;;;;;;16.67;10.95;;;;;;;0.30;65.88;96318.44;4823736;29;20119;-45
2021/03/07 08:11:29;;;;;;;17.13;11.35;;;;;;;0.51;65.40;96319.34;4826652;29;20516;-43
2021/03/07 08:13:56;;;;;;;18.40;11.70;;;;;;;0.51;65.44;96317.47;4834727;29;20137;-43
2021/03/07 08:16:43;;;;;;;19.45;12.77;;;;;;;0.55;65.53;96318.53;4834264;29;20100;-44
2021/03/07 08:19:10;;;;;;;18.88;11.93;;;;;;;0.56;65.50;96314.03;4840244;29;20073;-44
2021/03/07 08:22:07;;;;;;;16.92;11.45;;;;;;;0.92;65.89;96313.13;4839990;29;20049;-43
2021/03/07 08:24:53;;;;;;;18.65;11.07;;;;;;;1.45;64.31;96310.31;4834755;29;20553;-44
2021/03/07 08:27:34;;;;;;;16.52;11.13;;;;;;;1.39;63.58;96311.38;4840101;29;20112;-44
2021/03/07 08:30:02;;;;;;;19.73;11.60;;;;;;;1.58;63.37;96303.66;4835416;29;20062;-48
2021/03/07 08:32:40;;;;;;;17.40;11.30;;;;;;;1.67;62.83;96301.28;4835250;29;20061;-45
2021/03/07 08:35:10;;;;;;;17.83;11.65;;;;;;;1.58;62.80;96296.47;4826421;29;20060;-45
2021/03/07 08:37:37;;;;;;;17.52;10.95;;;;;;;2.03;61.70;96292.19;4826717;29;20141;-46
2021/03/07 08:40:33;;;;;;;17.38;11.35;;;;;;;2.41;60.56;96289.22;4839093;29;20145;-45
2021/03/07 08:43:21;;;;;;;17.52;10.95;;;;;;;2.29;60.68;96279.59;4831002;29;20050;-45
2021/03/07 08:46:11;;;;;;;16.77;11.05;;;;;;;2.24;60.99;96284.16;4834410;29;20081;-47
2021/03/07 08:48:41;;;;;;;15.82;10.93;;;;;;;2.46;60.02;96276.63;4841061;29;20056;-45
2021/03/07 08:51:09;;;;;;;16.17;10.90;;;;;;;2.36;60.46;96275.84;4840575;29;20394;-48
2021/03/07 08:53:41;;;;;;;16.80;10.80;;;;;;;1.95;61.86;96275.91;4836673;29;20087;-44
2021/03/07 08:56:09;;;;;;;17.40;10.93;;;;;;;1.88;62.29;96273.53;4838684;29;20090;-48
2021/03/07 08:58:38;;;;;;;15.73;10.57;;;;;;;2.15;61.70;96275.91;4841100;29;20302;-45
2021/03/07 09:01:05;;;;;;;18.75;11.55;;;;;;;2.50;60.40;96272.34;4836025;29;20041;-44
2021/03/07 09:03:32;;;;;;;20.83;11.63;;;;;;;2.49;60.43;96267.28;4834626;29;20106;-47
2021/03/07 09:06:07;;;;;;;19.60;11.45;;;;;;;2.52;60.64;96264.06;4823457;29;20133;-45
2021/03/07 09:08:33;;;;;;;16.83;10.32;;;;;;;2.43;60.72;96229.09;4831541;29;20490;-46
2021/03/07 09:11:00;;;;;;;15.13;10.63;;;;;;;2.82;60.32;96263.13;4838370;29;20393;-45
2021/03/07 09:13:28;;;;;;;13.95;9.98;;;;;;;2.68;60.42;96268.28;4839674;29;20158;-45
2021/03/07 09:15:57;;;;;;;17.27;11.00;;;;;;;2.74;60.05;96264.50;4835871;29;20057;-44
2021/03/07 09:18:33;;;;;;;18.48;11.55;;;;;;;3.28;58.98;96266.38;4840467;29;20496;-43
2021/03/07 09:21:18;;;;;;;17.65;11.60;;;;;;;2.96;59.38;96250.78;4839143;29;20061;-45
2021/03/07 09:23:49;;;;;;;16.35;10.75;;;;;;;2.69;60.90;96242.34;4838308;29;20080;-45
2021/03/07 09:26:17;;;;;;;19.98;12.27;;;;;;;2.95;60.45;96259.06;4835085;29;20114;-46
2021/03/07 09:28:51;;;;;;;15.65;10.25;;;;;;;3.39;58.96;96251.06;4833948;29;20046;-44
2021/03/07 09:31:21;;;;;;;17.73;10.95;;;;;;;3.75;57.99;96250.78;4833954;29;20420;-43
2021/03/07 09:34:02;;;;;;;16.65;11.43;;;;;;;3.30;59.17;96243.91;4834169;29;20150;-43
2021/03/07 09:36:31;;;;;;;15.40;10.43;;;;;;;3.33;59.26;96235.31;4835072;29;20062;-43
2021/03/07 09:39:00;;;;;;;18.08;10.77;;;;;;;3.61;59.26;96231.91;4838527;29;20581;-44
2021/03/07 09:41:34;;;;;;;16.05;11.05;;;;;;;3.74;59.22;96235.81;4835693;29;20053;-44
2021/03/07 09:44:03;;;;;;;15.18;11.05;;;;;;;3.67;58.70;96229.97;4832580;29;20064;-45
2021/03/07 09:46:30;;;;;;;17.52;12.10;;;;;;;3.54;59.59;96230.59;4833595;29;20124;-43
2021/03/07 09:49:03;;;;;;;18.83;10.85;;;;;;;3.71;59.09;96231.81;4834573;29;20552;-43
2021/03/07 09:51:32;;;;;;;17.92;11.40;;;;;;;4.35;57.38;96223.69;4835795;29;20463;-43
2021/03/07 09:54:00;;;;;;;15.00;10.55;;;;;;;4.50;57.22;96218.16;4838615;29;20501;-43
2021/03/07 09:56:34;;;;;;;16.70;11.48;;;;;;;4.74;56.70;96218.13;4841069;29;20564;-45
2021/03/07 09:59:32;;;;;;;17.15;11.10;;;;;;;4.98;56.36;96199.31;4841589;29;20080;-44
2021/03/07 10:02:02;;;;;;;;;;;;;;;4.74;57.04;96188.66;4830115;29;20046;-43
2021/03/07 10:04:42;;;;;;;16.08;11.13;;;;;;;4.69;57.56;96189.53;4832702;29;19928;-43
2021/03/07 10:07:19;;;;;;;17.63;10.57;;;;;;;5.20;55.86;96200.63;4840447;29;20053;-46
2021/03/07 10:10:04;;;;;;;15.63;11.20;;;;;;;4.54;58.02;96197.75;4835494;29;20133;-45
2021/03/07 10:12:57;;;;;;;16.13;10.50;;;;;;;4.75;57.69;96189.47;4824164;29;20869;-45
2021/03/07 10:15:40;;;;;;;17.85;12.15;;;;;;;4.93;57.56;96192.13;4834941;29;20058;-44
2021/03/07 10:18:12;;;;;;;14.07;10.18;;;;;;;5.11;56.71;96185.19;4830368;29;20176;-45
2021/03/07 10:20:41;;;;;;;15.05;10.57;;;;;;;4.66;58.13;96173.22;4836301;29;20145;-45
2021/03/07 10:23:08;;;;;;;15.27;10.13;;;;;;;4.91;57.87;96172.09;4835936;29;20054;-45
2021/03/07 10:25:37;;;;;;;16.33;10.38;;;;;;;5.09;56.90;96165.91;4836271;29;20060;-44
2021/03/07 10:28:21;;;;;;;14.68;10.15;;;;;;;5.47;56.39;96173.91;4836991;29;20054;-44
2021/03/07 10:30:50;;;;;;;14.80;10.30;;;;;;;5.77;54.86;96166.44;4833030;29;20149;-43
2021/03/07 10:33:25;;;;;;;15.15;10.23;;;;;;;5.62;55.22;96172.84;4834004;29;20049;-42
2021/03/07 10:36:04;;;;;;;14.80;10.70;;;;;;;5.80;54.65;96172.00;4834796;29;21080;-43
2021/03/07 10:38:34;;;;;;;17.65;10.48;;;;;;;5.75;54.79;96171.28;4834098;29;20107;-42
2021/03/07 10:41:21;;;;;;;14.85;11.05;;;;;;;5.94;54.67;96160.53;4835545;29;20422;-44
2021/03/07 10:43:50;;;;;;;15.23;10.43;;;;;;;6.38;53.30;96170.69;4833493;29;20068;-45
2021/03/07 10:46:33;;;;;;;14.43;10.57;;;;;;;5.88;54.23;96157.09;4834495;29;20144;-44
2021/03/07 10:49:19;;;;;;;15.48;10.63;;;;;;;6.08;54.52;96158.66;4835884;29;20050;-45
2021/03/07 10:51:47;;;;;;;15.30;10.82;;;;;;;6.57;53.06;96156.38;4819948;29;20049;-44
2021/03/07 10:54:14;;;;;;;17.83;10.30;;;;;;;6.68;52.67;96163.91;4833299;29;20226;-43
2021/03/07 10:56:41;;;;;;;15.13;9.75;;;;;;;6.70;52.90;96145.56;4835027;29;20053;-45
2021/03/07 10:59:09;;;;;;;14.35;10.05;;;;;;;7.53;51.20;96156.03;4836193;29;20068;-42
2021/03/07 11:01:38;;;;;;;16.83;9.68;;;;;;;7.61;50.70;96157.22;4833900;29;20054;-47
2021/03/07 11:04:05;;;;;;;14.93;9.57;;;;;;;7.70;50.41;96158.03;4835427;29;20054;-43
2021/03/07 11:06:32;;;;;;;15.52;9.57;;;;;;;7.73;50.28;96152.06;4838630;29;20409;-41
2021/03/07 11:08:58;;;;;;;15.63;9.93;;;;;;;7.29;51.36;96140.22;4838093;29;20505;-45
2021/03/07 11:11:25;;;;;;;15.52;10.23;;;;;;;8.09;50.16;96146.56;4837450;29;20568;-46
2021/03/07 11:13:51;;;;;;;15.15;10.48;;;;;;;7.60;50.77;96142.94;4836351;29;20101;-42
2021/03/07 11:16:18;;;;;;;16.33;9.98;;;;;;;8.21;49.26;96140.56;4831926;29;20042;-43
2021/03/07 11:18:45;;;;;;;18.40;10.98;;;;;;;8.38;48.69;96131.75;4838873;29;20046;-41
2021/03/07 11:21:11;;;;;;;13.85;9.70;;;;;;;7.91;50.19;96129.50;4841972;29;20065;-41
2021/03/07 11:23:38;;;;;;;13.48;9.65;;;;;;;7.58;51.14;96126.31;4843196;29;20077;-40
2021/03/07 11:26:04;;;;;;;14.77;9.55;;;;;;;7.85;50.67;96127.25;4839560;29;20089;-41
2021/03/07 11:28:31;;;;;;;13.50;9.93;;;;;;;8.45;49.02;96115.94;4843309;29;20129;-42
2021/03/07 11:30:58;;;;;;;15.48;10.55;;;;;;;8.53;49.50;96112.44;4844136;29;20096;-43
2021/03/07 11:33:25;;;;;;;13.40;9.57;;;;;;;8.75;47.74;96097.25;4843341;29;20076;-43
2021/03/07 11:35:52;;;;;;;13.48;9.40;;;;;;;8.04;49.74;96119.72;4839025;29;20119;-43
2021/03/07 11:38:19;;;;;;;16.48;9.13;;;;;;;8.10;50.29;96099.63;4836409;29;20137;-45
2021/03/07 11:40:46;;;;;;;15.38;9.50;;;;;;;7.86;50.58;96101.88;4841830;29;20500;-43
2021/03/07 11:43:13;;;;;;;13.15;9.07;;;;;;;7.87;51.10;96101.59;4835466;29;20099;-44